Time;durP1;ratioP1;P1;durP2;ratioP2;P2;SDS_P1;SDS_P2;PMS_P1;PMS_P2;Temp;Humidity;BMP_temperature;BMP_pressure;BME280_temperature;BME280_humidity;BME280_pressure;Samples;Min_cycle;Max_cycle;Signal;HPM_P1;HPM_P2
2023/01/30 00:01:22;;;;;;;61.03;24.52;;;;;;;2.37;100.00;101661.16;5011513;28;20037;-80
2023/01/30 00:03:48;;;;;;;66.18;24.92;;;;;;;2.39;100.00;101677.25;5001080;28;20030;-78
2023/01/30 00:06:14;;;;;;;63.78;24.55;;;;;;;2.31;100.00;101664.88;4995503;28;20063;-78
2023/01/30 00:08:40;;;;;;;65.90;24.80;;;;;;;2.38;100.00;101660.25;5007174;28;20044;-79
2023/01/30 00:11:08;;;;;;;61.65;23.70;;;;;;;2.38;100.00;101652.59;5019718;28;20033;-79
2023/01/30 00:13:33;;;;;;;62.92;25.55;;;;;;;2.47;100.00;101641.03;5005194;28;20033;-78
2023/01/30 00:15:59;;;;;;;56.58;22.98;;;;;;;2.35;100.00;101645.06;4991365;28;20441;-78
2023/01/30 00:18:24;;;;;;;61.55;24.05;;;;;;;2.43;100.00;101645.50;5006774;28;20045;-79
2023/01/30 00:20:57;;;;;;;59.88;24.85;;;;;;;2.44;100.00;101643.75;5005538;28;20044;-80
2023/01/30 00:23:24;;;;;;;58.08;23.67;;;;;;;2.48;100.00;101642.66;5003176;28;20084;-78
2023/01/30 00:25:50;;;;;;;56.35;24.20;;;;;;;2.50;100.00;101623.75;5004508;28;20052;-77
2023/01/30 00:28:15;;;;;;;57.78;24.63;;;;;;;2.56;100.00;101619.22;5012404;28;20045;-80
2023/01/30 00:30:41;;;;;;;64.22;25.05;;;;;;;2.53;100.00;101625.34;4990410;28;20032;-77
2023/01/30 00:33:06;;;;;;;61.47;24.92;;;;;;;2.66;100.00;101617.81;5020920;28;20071;-79
2023/01/30 00:35:32;;;;;;;53.47;22.02;;;;;;;2.61;100.00;101609.56;5008095;28;20037;-78
2023/01/30 00:37:58;;;;;;;58.83;23.02;;;;;;;2.71;100.00;101598.72;5016890;28;20046;-78
2023/01/30 00:40:25;;;;;;;58.33;23.38;;;;;;;2.62;100.00;101598.38;5021945;28;20540;-78
2023/01/30 00:48:22;;;;;;;59.40;23.95;;;;;;;2.66;100.00;101575.09;5006946;28;20056;-78
2023/01/30 00:50:48;;;;;;;58.80;23.65;;;;;;;2.82;100.00;101575.03;4990617;28;20923;-79
2023/01/30 00:53:15;;;;;;;56.70;24.58;;;;;;;2.73;100.00;101570.44;5019905;28;20033;-78
2023/01/30 00:55:42;;;;;;;59.42;23.80;;;;;;;2.64;100.00;101563.28;5009970;28;20040;-79
2023/01/30 00:58:08;;;;;;;54.92;24.10;;;;;;;2.77;100.00;101577.06;5008098;28;20549;-78
2023/01/30 01:00:34;;;;;;;63.45;24.48;;;;;;;2.79;100.00;101570.09;5006754;28;20034;-80
2023/01/30 01:02:59;;;;;;;57.38;23.13;;;;;;;2.82;100.00;101556.28;4990244;28;20041;-78
2023/01/30 01:05:25;;;;;;;58.15;23.90;;;;;;;2.83;100.00;101555.41;5028298;28;20029;-78
2023/01/30 01:07:51;;;;;;;61.45;25.15;;;;;;;2.85;100.00;101561.25;4992533;28;20030;-79
2023/01/30 01:10:17;;;;;;;54.42;23.33;;;;;;;2.89;100.00;101550.72;4996281;28;20415;-79
2023/01/30 01:12:43;;;;;;;55.90;22.92;;;;;;;2.89;100.00;101540.47;5007957;28;20041;-78
2023/01/30 01:15:11;;;;;;;54.90;23.95;;;;;;;2.90;100.00;101556.66;5012489;28;20127;-77
2023/01/30 01:17:37;;;;;;;55.67;23.17;;;;;;;2.84;100.00;101521.97;4993783;28;20925;-77
2023/01/30 01:20:04;;;;;;;59.92;24.27;;;;;;;2.97;100.00;101529.78;5010652;28;20029;-79
2023/01/30 01:22:31;;;;;;;51.97;23.23;;;;;;;2.97;100.00;101544.34;5012495;28;20089;-80
2023/01/30 01:24:56;;;;;;;52.28;23.23;;;;;;;2.96;100.00;101537.56;4995614;28;20037;-79
2023/01/30 01:27:22;;;;;;;54.50;22.80;;;;;;;2.92;100.00;101535.19;5013231;28;20394;-78
2023/01/30 01:29:47;;;;;;;51.15;21.90;;;;;;;2.90;100.00;101531.91;5015136;28;20025;-78
2023/01/30 01:32:14;;;;;;;50.95;22.80;;;;;;;2.94;100.00;101540.25;4995463;28;20037;-79
2023/01/30 01:34:40;;;;;;;56.90;23.67;;;;;;;3.09;100.00;101549.59;5010134;28;20034;-78
2023/01/30 01:37:05;;;;;;;54.00;22.80;;;;;;;3.11;100.00;101545.19;5019115;28;20052;-78
2023/01/30 01:42:16;;;;;;;54.63;22.73;;;;;;;3.03;100.00;101538.88;5025769;28;20121;-78
2023/01/30 01:45:16;;;;;;;52.80;22.02;;;;;;;3.10;100.00;101542.72;5009331;28;20026;-79
2023/01/30 01:47:56;;;;;;;57.10;23.63;;;;;;;3.19;100.00;101538.81;4997605;28;20406;-79
2023/01/30 01:50:27;;;;;;;55.60;23.92;;;;;;;3.19;100.00;101538.81;5013694;28;20028;-79
2023/01/30 01:52:56;;;;;;;56.95;24.02;;;;;;;3.15;100.00;101538.16;4993825;28;20168;-79
2023/01/30 01:55:22;;;;;;;55.33;23.52;;;;;;;3.22;100.00;101542.03;5027233;28;20038;-78
2023/01/30 01:57:57;;;;;;;50.90;22.95;;;;;;;3.20;100.00;101533.59;5015517;28;20041;-77
2023/01/30 02:00:24;;;;;;;53.85;22.67;;;;;;;3.21;100.00;101521.59;5010270;28;20505;-79
2023/01/30 02:02:57;;;;;;;53.60;24.38;;;;;;;3.19;100.00;101533.69;5008836;28;20132;-78
2023/01/30 02:05:24;;;;;;;;;;;;;;;3.18;100.00;101520.03;5015167;28;20033;-78
2023/01/30 02:07:59;;;;;;;50.00;22.17;;;;;;;3.11;100.00;101523.88;5013662;28;19925;-78
2023/01/30 02:10:39;;;;;;;55.20;22.92;;;;;;;3.16;100.00;101534.66;4992163;28;20475;-79
2023/01/30 02:13:04;;;;;;;55.00;23.33;;;;;;;3.10;100.00;101511.97;4993654;28;20037;-78
2023/01/30 02:15:30;;;;;;;52.90;23.25;;;;;;;3.07;100.00;101509.56;5009375;28;20025;-78
2023/01/30 02:17:55;;;;;;;55.13;23.85;;;;;;;3.12;100.00;101494.75;4997007;28;20406;-78
2023/01/30 02:21:05;;;;;;;59.38;24.58;;;;;;;3.10;100.00;101504.28;5009539;28;20040;-79
2023/01/30 02:23:30;;;;;;;59.53;22.92;;;;;;;3.12;100.00;101498.13;4985793;28;20045;-79
2023/01/30 02:26:17;;;;;;;53.33;23.77;;;;;;;3.15;100.00;101475.84;4996435;28;20116;-78
2023/01/30 02:29:21;;;;;;;57.65;23.52;;;;;;;3.12;100.00;101471.69;5010278;28;20060;-78
2023/01/30 02:32:05;;;;;;;61.55;23.17;;;;;;;3.09;100.00;101465.03;4992499;28;20040;-79
2023/01/30 02:34:49;;;;;;;68.32;24.98;;;;;;;3.20;100.00;101469.53;5007232;28;20125;-80
2023/01/30 02:37:25;;;;;;;58.60;23.00;;;;;;;3.19;100.00;101467.84;4996641;28;20033;-78
2023/01/30 02:40:22;;;;;;;54.55;22.45;;;;;;;3.22;100.00;101457.44;5011318;28;20116;-79
2023/01/30 02:43:15;;;;;;;58.45;23.38;;;;;;;3.14;100.00;101440.84;5024304;28;20034;-79
2023/01/30 02:45:49;;;;;;;;;;;;;;;3.20;100.00;101454.13;5013017;28;20036;-79
2023/01/30 02:48:33;;;;;;;;;;;;;;;3.14;100.00;101449.34;5012808;28;19978;-78
2023/01/30 02:51:06;;;;;;;59.13;24.40;;;;;;;3.14;100.00;101440.84;5006762;28;19917;-78
2023/01/30 02:53:33;;;;;;;63.78;23.67;;;;;;;3.06;100.00;101434.44;4990965;28;20740;-79
2023/01/30 02:55:59;;;;;;;53.60;23.25;;;;;;;3.18;100.00;101434.63;4997199;28;20040;-78
2023/01/30 02:58:28;;;;;;;64.45;24.58;;;;;;;3.12;100.00;101438.38;5008355;28;20037;-79
2023/01/30 03:01:14;;;;;;;58.55;23.08;;;;;;;3.13;100.00;101424.66;5019310;28;20048;-78
2023/01/30 03:04:02;;;;;;;60.70;22.95;;;;;;;3.18;100.00;101430.31;4997406;28;20045;-78
2023/01/30 03:06:44;;;;;;;57.38;23.90;;;;;;;3.11;100.00;101418.81;4998895;28;20029;-78
2023/01/30 03:09:37;;;;;;;58.53;24.25;;;;;;;3.21;100.00;101417.31;5014255;28;20116;-79
2023/01/30 03:12:11;;;;;;;58.65;24.42;;;;;;;3.23;100.00;101430.06;4994966;28;20570;-78
2023/01/30 03:14:47;;;;;;;55.65;23.95;;;;;;;3.31;100.00;101426.13;5010082;28;20048;-79
2023/01/30 03:17:15;;;;;;;61.72;24.08;;;;;;;3.30;100.00;101426.22;5008414;28;20056;-79
2023/01/30 03:19:41;;;;;;;56.45;23.80;;;;;;;3.24;100.00;101411.19;5024198;28;20027;-78
2023/01/30 03:22:07;;;;;;;56.58;23.48;;;;;;;3.36;100.00;101404.50;5011699;28;20025;-77
2023/01/30 03:24:32;;;;;;;57.55;23.13;;;;;;;3.37;100.00;101406.97;5008060;28;20506;-79
2023/01/30 03:27:05;;;;;;;53.13;23.20;;;;;;;3.45;100.00;101397.06;5009801;28;20497;-79
2023/01/30 03:29:31;;;;;;;57.92;22.95;;;;;;;3.48;100.00;101396.03;5011218;28;20599;-80
2023/01/30 03:31:57;;;;;;;67.90;23.60;;;;;;;3.40;100.00;101396.50;4993874;28;20048;-79
2023/01/30 03:34:22;;;;;;;50.58;22.80;;;;;;;3.44;100.00;101399.72;5011197;28;20037;-79
2023/01/30 03:36:48;;;;;;;53.15;22.35;;;;;;;3.42;100.00;101391.28;5007177;28;20026;-78
2023/01/30 03:39:14;;;;;;;52.60;22.65;;;;;;;3.51;100.00;101372.78;5009399;28;20514;-78
2023/01/30 03:41:40;;;;;;;54.45;22.85;;;;;;;3.48;100.00;101380.66;5005805;28;20079;-79
2023/01/30 03:44:06;;;;;;;56.60;22.52;;;;;;;3.47;100.00;101384.97;5014145;28;20036;-81
2023/01/30 03:46:32;;;;;;;53.15;23.42;;;;;;;3.56;100.00;101388.69;5008590;28;20033;-79
2023/01/30 03:48:57;;;;;;;54.33;23.38;;;;;;;3.45;100.00;101378.28;5011293;28;20048;-78
2023/01/30 03:51:23;;;;;;;50.45;22.20;;;;;;;3.55;100.00;101387.03;5009183;28;20032;-78
2023/01/30 03:53:48;;;;;;;67.78;27.75;;;;;;;3.57;100.00;101397.22;5021294;28;20638;-78
2023/01/30 03:56:14;;;;;;;145.88;43.33;;;;;;;3.50;100.00;101381.38;5012293;28;20025;-78
2023/01/30 03:58:39;;;;;;;70.43;30.42;;;;;;;3.56;100.00;101383.56;5007034;28;20602;-78
2023/01/30 04:01:15;;;;;;;59.15;25.73;;;;;;;3.56;100.00;101372.47;4997860;28;20037;-78
2023/01/30 04:03:41;;;;;;;54.80;25.00;;;;;;;3.63;100.00;101373.72;4993792;28;20122;-79
2023/01/30 04:06:07;;;;;;;52.60;24.58;;;;;;;3.66;100.00;101365.84;4988046;28;20544;-79
2023/01/30 04:08:32;;;;;;;53.55;22.67;;;;;;;3.68;100.00;101361.44;5006793;28;20042;-79
2023/01/30 04:10:58;;;;;;;47.95;22.13;;;;;;;3.70;100.00;101364.75;4995427;28;20029;-80
2023/01/30 04:13:23;;;;;;;55.30;23.90;;;;;;;3.67;100.00;101355.50;4991300;28;20498;-80
2023/01/30 04:15:49;;;;;;;53.65;24.15;;;;;;;3.66;100.00;101351.28;5002365;28;20041;-79
2023/01/30 04:18:53;;;;;;;55.35;23.75;;;;;;;3.75;100.00;101359.31;5023140;28;20033;-80
2023/01/30 04:21:20;;;;;;;53.40;24.73;;;;;;;3.80;100.00;101357.28;5009494;28;20211;-79
2023/01/30 04:23:45;;;;;;;46.47;22.83;;;;;;;3.91;100.00;101352.28;5008570;28;20513;-80
2023/01/30 04:26:12;;;;;;;48.70;22.98;;;;;;;3.98;100.00;101345.00;5006374;28;20033;-80
2023/01/30 04:28:39;;;;;;;44.70;21.58;;;;;;;3.80;100.00;101342.69;5004311;28;20252;-80
2023/01/30 04:31:06;;;;;;;58.45;26.45;;;;;;;3.85;100.00;101350.94;5014079;28;20017;-80
2023/01/30 04:33:56;;;;;;;58.92;23.08;;;;;;;3.91;100.00;101344.56;5006045;28;20038;-82
2023/01/30 04:36:22;;;;;;;47.95;22.35;;;;;;;3.86;100.00;101344.88;5007918;28;20083;-80
2023/01/30 04:38:48;;;;;;;50.53;20.98;;;;;;;3.80;100.00;101347.81;4992181;28;20030;-79
2023/01/30 04:41:15;;;;;;;49.67;21.23;;;;;;;3.91;100.00;101344.56;5010669;28;20099;-80
2023/01/30 04:43:42;;;;;;;54.08;21.20;;;;;;;3.95;100.00;101352.91;5010626;28;20510;-80
2023/01/30 04:46:33;;;;;;;48.85;20.02;;;;;;;4.02;100.00;101343.88;5002083;28;20402;-79
2023/01/30 04:48:59;;;;;;;49.88;20.73;;;;;;;3.94;100.00;101339.25;5007458;28;20041;-79
2023/01/30 04:51:25;;;;;;;46.67;19.30;;;;;;;3.95;100.00;101346.00;5010660;28;20034;-81
2023/01/30 04:53:50;;;;;;;41.97;20.10;;;;;;;3.90;100.00;101348.91;5008819;28;20380;-81
2023/01/30 04:56:17;;;;;;;44.88;21.23;;;;;;;3.90;100.00;101363.47;5004181;28;20032;-82
2023/01/30 04:58:43;;;;;;;48.08;20.17;;;;;;;3.90;100.00;101355.78;5010336;28;20025;-83
2023/01/30 05:01:13;;;;;;;48.33;19.60;;;;;;;3.91;100.00;101349.72;5011497;28;20037;-82
2023/01/30 05:03:39;;;;;;;44.28;19.67;;;;;;;4.00;100.00;101349.13;5004112;28;20205;-82
2023/01/30 05:06:04;;;;;;;42.67;18.00;;;;;;;4.02;100.00;101349.03;5022033;28;20026;-82
2023/01/30 05:08:30;;;;;;;43.72;18.20;;;;;;;4.06;100.00;101358.97;5015399;28;20522;-82
2023/01/30 05:10:56;;;;;;;45.15;18.95;;;;;;;4.01;100.00;101355.06;5005134;28;20040;-82
2023/01/30 05:13:22;;;;;;;40.42;18.77;;;;;;;4.04;100.00;101353.13;5006937;28;20095;-81
2023/01/30 05:15:47;;;;;;;37.80;17.75;;;;;;;4.08;100.00;101354.56;5009670;28;20037;-81
2023/01/30 05:18:13;;;;;;;40.35;19.33;;;;;;;4.05;100.00;101354.78;5005038;28;20038;-82
2023/01/30 05:20:38;;;;;;;41.78;17.80;;;;;;;4.04;100.00;101367.69;4991952;28;20053;-82
2023/01/30 05:23:04;;;;;;;34.95;17.13;;;;;;;4.03;100.00;101366.88;4996523;28;20501;-81
2023/01/30 05:25:29;;;;;;;38.97;17.70;;;;;;;4.06;100.00;101365.84;5007092;28;20041;-81
2023/01/30 05:27:56;;;;;;;34.40;15.55;;;;;;;4.07;100.00;101362.38;5005456;28;20049;-81
2023/01/30 05:30:21;;;;;;;43.53;17.95;;;;;;;4.22;100.00;101345.97;4995328;28;20041;-81
2023/01/30 05:32:47;;;;;;;38.88;16.30;;;;;;;4.13;100.00;101346.56;5009846;28;20037;-81
2023/01/30 05:35:12;;;;;;;48.65;17.27;;;;;;;4.17;100.00;101348.00;4993532;28;20026;-80
2023/01/30 05:37:38;;;;;;;33.42;16.38;;;;;;;4.16;100.00;101348.09;5006744;28;20380;-81
2023/01/30 05:40:05;;;;;;;31.40;14.85;;;;;;;4.20;100.00;101340.13;5018771;28;20033;-81
2023/01/30 05:42:30;;;;;;;32.10;16.67;;;;;;;4.17;100.00;101345.44;5008869;28;20475;-79
2023/01/30 05:44:56;;;;;;;40.15;16.83;;;;;;;4.22;100.00;101337.44;4994030;28;20037;-80
2023/01/30 05:47:21;;;;;;;37.30;16.17;;;;;;;4.21;100.00;101351.19;5005232;28;20037;-80
2023/01/30 05:49:47;;;;;;;32.95;17.00;;;;;;;4.31;100.00;101343.72;5013990;28;20034;-81
2023/01/30 05:52:12;;;;;;;36.13;16.15;;;;;;;4.25;100.00;101344.94;5004582;28;20042;-81
2023/01/30 05:54:38;;;;;;;35.03;17.20;;;;;;;4.22;100.00;101355.41;5008590;28;20049;-81
2023/01/30 05:57:03;;;;;;;31.48;15.77;;;;;;;4.33;100.00;101355.50;4992772;28;20033;-82
2023/01/30 05:59:28;;;;;;;47.00;20.75;;;;;;;4.31;100.00;101338.56;5003729;28;20037;-81
2023/01/30 06:01:54;;;;;;;36.10;17.35;;;;;;;4.32;100.00;101343.63;5006413;28;20037;-82
2023/01/30 06:04:19;;;;;;;41.95;17.17;;;;;;;4.35;100.00;101338.28;4991277;28;20474;-80
2023/01/30 06:06:48;;;;;;;36.00;16.65;;;;;;;4.44;100.00;101342.78;5008394;28;20034;-79
2023/01/30 06:09:14;;;;;;;36.60;15.30;;;;;;;4.36;100.00;101350.19;4998614;28;20029;-82
2023/01/30 06:11:39;;;;;;;33.35;16.65;;;;;;;4.38;100.00;101352.66;5012002;28;20405;-82
2023/01/30 06:14:04;;;;;;;39.60;15.95;;;;;;;4.38;100.00;101350.09;5013918;28;20414;-82
2023/01/30 06:16:30;;;;;;;35.60;15.98;;;;;;;4.45;100.00;101354.72;4998703;28;20033;-82
2023/01/30 06:18:55;;;;;;;38.80;17.15;;;;;;;4.55;100.00;101366.94;5000200;28;20526;-82
2023/01/30 06:21:21;;;;;;;37.60;15.48;;;;;;;4.42;100.00;101385.72;5010697;28;20037;-83
2023/01/30 06:23:46;;;;;;;36.38;17.42;;;;;;;4.46;100.00;101391.47;5006061;28;20987;-84
2023/01/30 06:26:12;;;;;;;32.42;15.60;;;;;;;4.40;100.00;101391.88;5013016;28;20033;-84
2023/01/30 06:28:37;;;;;;;34.22;16.35;;;;;;;4.53;100.00;101391.91;5009677;28;20042;-84
2023/01/30 06:31:05;;;;;;;32.08;15.43;;;;;;;4.53;100.00;101390.16;5001114;28;20036;-84
2023/01/30 06:33:31;;;;;;;31.45;15.07;;;;;;;4.58;100.00;101385.53;4992930;28;20509;-84
2023/01/30 06:35:56;;;;;;;28.70;15.00;;;;;;;4.54;100.00;101372.97;4996375;28;20029;-84
2023/01/30 06:38:22;;;;;;;36.25;15.27;;;;;;;4.50;100.00;101377.50;5010877;28;20430;-83
2023/01/30 06:40:48;;;;;;;32.45;14.88;;;;;;;4.54;100.00;101378.97;5009679;28;20037;-83
2023/01/30 06:43:15;;;;;;;32.05;14.77;;;;;;;4.57;100.00;101383.06;4994951;28;20041;-83
2023/01/30 06:45:41;;;;;;;32.60;14.73;;;;;;;4.54;100.00;101389.25;4998870;28;20029;-83
2023/01/30 06:48:06;;;;;;;28.75;14.60;;;;;;;4.54;100.00;101384.09;5008433;28;20105;-83
2023/01/30 06:50:32;;;;;;;33.97;16.52;;;;;;;4.51;100.00;101389.44;4993827;28;20034;-83
2023/01/30 06:53:01;;;;;;;29.60;15.02;;;;;;;4.58;100.00;101395.00;4994748;28;20045;-83
2023/01/30 06:55:27;;;;;;;31.80;14.48;;;;;;;4.64;100.00;101403.09;5012862;28;20050;-82
2023/01/30 06:58:07;;;;;;;35.80;15.70;;;;;;;4.62;100.00;101417.78;5016495;28;20520;-83
2023/01/30 07:00:34;;;;;;;35.08;17.17;;;;;;;4.66;100.00;101415.84;5002296;28;20044;-79
2023/01/30 07:02:59;;;;;;;37.83;16.67;;;;;;;4.64;100.00;101412.56;4995152;28;20033;-82
2023/01/30 07:05:25;;;;;;;31.75;16.00;;;;;;;4.75;100.00;101406.72;5014440;28;20067;-82
2023/01/30 07:07:51;;;;;;;29.73;15.90;;;;;;;4.70;100.00;101412.16;4996671;28;20042;-82
2023/01/30 07:10:17;;;;;;;35.63;15.93;;;;;;;4.72;100.00;101402.59;4998269;28;20026;-82
2023/01/30 07:12:44;;;;;;;30.67;15.32;;;;;;;4.74;100.00;101408.44;5006296;28;20045;-81
2023/01/30 07:15:10;;;;;;;29.95;15.43;;;;;;;4.80;100.00;101402.91;4996171;28;20025;-82
2023/01/30 07:17:35;;;;;;;38.65;16.63;;;;;;;4.83;100.00;101394.16;5007755;28;20490;-81
2023/01/30 07:20:01;;;;;;;29.23;15.48;;;;;;;4.85;100.00;101398.25;5023080;28;20033;-78
2023/01/30 07:22:26;;;;;;;32.65;15.73;;;;;;;4.91;100.00;101393.63;5007646;28;20033;-81
2023/01/30 07:24:52;;;;;;;35.00;15.48;;;;;;;4.88;100.00;101381.81;5004889;28;20029;-82
2023/01/30 07:27:17;;;;;;;43.95;18.30;;;;;;;4.92;100.00;101390.16;5005592;28;20502;-82
2023/01/30 07:29:43;;;;;;;34.58;16.70;;;;;;;4.94;100.00;101388.28;5012436;28;20129;-81
2023/01/30 07:32:15;;;;;;;33.55;14.95;;;;;;;5.01;100.00;101392.06;5021686;28;20042;-82
2023/01/30 07:34:41;;;;;;;37.08;17.13;;;;;;;4.98;100.00;101392.28;5009621;28;20552;-83
2023/01/30 07:37:07;;;;;;;35.47;16.95;;;;;;;4.91;100.00;101399.59;5012060;28;20034;-82
2023/01/30 07:39:32;;;;;;;36.95;16.90;;;;;;;4.99;100.00;101409.34;5012057;28;20482;-82
2023/01/30 07:42:01;;;;;;;39.92;19.30;;;;;;;5.05;100.00;101409.75;4991485;28;20053;-82
2023/01/30 07:44:27;;;;;;;43.58;17.90;;;;;;;4.94;100.00;101414.81;5006422;28;20390;-81
2023/01/30 07:46:52;;;;;;;38.42;18.67;;;;;;;4.95;100.00;101413.88;5006112;28;20029;-81
2023/01/30 07:49:18;;;;;;;35.42;17.67;;;;;;;4.96;100.00;101412.97;5013760;28;20048;-82
2023/01/30 07:51:45;;;;;;;39.22;17.90;;;;;;;4.86;100.00;101425.63;5011462;28;20038;-82
2023/01/30 07:54:11;;;;;;;40.15;18.13;;;;;;;4.95;100.00;101423.34;5012966;28;20036;-82
2023/01/30 07:56:36;;;;;;;42.97;19.83;;;;;;;5.07;100.00;101414.81;5010437;28;20029;-81
2023/01/30 07:59:04;;;;;;;40.40;20.05;;;;;;;4.98;100.00;101410.28;4996728;28;20033;-82
2023/01/30 08:01:30;;;;;;;36.78;17.70;;;;;;;5.02;100.00;101399.69;4994983;28;20504;-82
2023/01/30 08:03:56;;;;;;;39.85;17.58;;;;;;;4.95;100.00;101405.34;4999358;28;20036;-82
2023/01/30 08:06:21;;;;;;;41.35;17.42;;;;;;;5.00;100.00;101408.44;5013937;28;20398;-81
2023/01/30 08:08:47;;;;;;;38.60;15.55;;;;;;;4.96;100.00;101404.44;5011231;28;20049;-82
2023/01/30 08:11:12;;;;;;;36.72;16.45;;;;;;;4.96;100.00;101401.88;5011382;28;20037;-81
2023/01/30 08:13:38;;;;;;;34.95;14.60;;;;;;;5.05;100.00;101388.38;5006762;28;20048;-82
2023/01/30 08:16:06;;;;;;;33.50;14.73;;;;;;;5.00;100.00;101403.28;5011139;28;20119;-81
2023/01/30 08:18:34;;;;;;;27.35;13.60;;;;;;;5.07;100.00;101402.75;5005489;28;20038;-81
2023/01/30 08:21:05;;;;;;;33.38;13.63;;;;;;;5.14;100.00;101400.59;5022653;28;20402;-82
2023/01/30 08:23:32;;;;;;;32.58;13.52;;;;;;;5.03;100.00;101405.66;5011908;28;20057;-81
2023/01/30 08:26:00;;;;;;;28.98;11.13;;;;;;;5.06;100.00;101413.97;5011759;28;20033;-81
2023/01/30 08:28:26;;;;;;;33.42;13.68;;;;;;;5.06;100.00;101426.00;5012657;28;20045;-81
2023/01/30 08:30:53;;;;;;;32.45;13.70;;;;;;;5.12;100.00;101429.91;5013980;28;20044;-81
2023/01/30 08:33:19;;;;;;;34.47;11.55;;;;;;;5.11;100.00;101426.50;5011052;28;20040;-81
2023/01/30 08:35:45;;;;;;;29.73;11.02;;;;;;;5.23;100.00;101430.00;5005291;28;20429;-80
2023/01/30 08:38:11;;;;;;;24.92;10.80;;;;;;;5.26;100.00;101430.59;5004416;28;20048;-81
2023/01/30 08:40:36;;;;;;;30.60;10.20;;;;;;;5.29;100.00;101436.47;4985060;28;20517;-80
2023/01/30 08:43:02;;;;;;;21.10;9.15;;;;;;;5.35;100.00;101430.88;5010015;28;20080;-81
2023/01/30 08:45:29;;;;;;;29.30;10.20;;;;;;;5.35;100.00;101439.44;4992544;28;20037;-80
2023/01/30 08:47:59;;;;;;;25.63;9.13;;;;;;;5.41;100.00;101435.63;5007192;28;20038;-79
2023/01/30 08:50:25;;;;;;;31.52;8.10;;;;;;;5.39;100.00;101437.47;5008833;28;20601;-80
2023/01/30 08:52:50;;;;;;;29.38;7.90;;;;;;;5.47;100.00;101450.63;5001669;28;20057;-80
2023/01/30 08:55:17;;;;;;;33.03;7.95;;;;;;;5.57;100.00;101450.78;5008485;28;20506;-79
2023/01/30 08:57:42;;;;;;;24.83;6.50;;;;;;;5.68;100.00;101450.88;5005305;28;20040;-81
2023/01/30 09:00:10;;;;;;;21.65;6.95;;;;;;;5.74;100.00;101437.56;4994087;28;20486;-81
2023/01/30 09:02:36;;;;;;;18.50;7.57;;;;;;;5.81;100.00;101448.25;5018386;28;20924;-79
2023/01/30 09:05:01;;;;;;;29.85;6.78;;;;;;;5.95;100.00;101449.84;5008901;28;20038;-81
2023/01/30 09:07:27;;;;;;;23.25;5.95;;;;;;;6.13;100.00;101448.53;4994321;28;20057;-80
2023/01/30 09:09:53;;;;;;;21.70;6.78;;;;;;;6.17;100.00;101444.00;5010810;28;20048;-80
2023/01/30 09:12:19;;;;;;;22.27;5.25;;;;;;;6.32;100.00;101447.22;4989718;28;20026;-80
2023/01/30 09:14:44;;;;;;;17.98;4.47;;;;;;;6.28;100.00;101448.38;5013878;28;20091;-80
2023/01/30 09:17:10;;;;;;;24.10;4.97;;;;;;;6.22;100.00;101455.59;4992380;28;20088;-81
2023/01/30 09:19:36;;;;;;;15.45;3.78;;;;;;;6.32;100.00;101458.31;4994611;28;20393;-79
2023/01/30 09:22:01;;;;;;;16.77;4.18;;;;;;;6.18;100.00;101455.94;4987708;28;20589;-80
2023/01/30 09:24:27;;;;;;;18.13;3.55;;;;;;;6.16;100.00;101458.63;4993130;28;20065;-79
2023/01/30 09:26:56;;;;;;;17.65;3.45;;;;;;;6.03;100.00;101453.53;4991245;28;20045;-79
2023/01/30 09:29:22;;;;;;;18.02;3.55;;;;;;;6.04;100.00;101455.16;5012086;28;20033;-80
2023/01/30 09:31:48;;;;;;;23.42;3.92;;;;;;;5.97;99.44;101458.28;5022201;28;20034;-79
2023/01/30 09:34:14;;;;;;;21.67;2.97;;;;;;;5.93;99.91;101464.56;4993414;28;20038;-80
2023/01/30 09:36:39;;;;;;;26.25;3.88;;;;;;;5.90;99.70;101468.19;4995421;28;20033;-81
2023/01/30 09:39:05;;;;;;;23.35;4.43;;;;;;;5.86;98.87;101466.78;4993668;28;20025;-79
2023/01/30 09:41:30;;;;;;;18.27;2.35;;;;;;;5.95;99.39;101461.00;5005105;28;20037;-81
2023/01/30 09:44:28;;;;;;;16.88;2.45;;;;;;;6.02;98.02;101471.66;5007976;28;20121;-80
2023/01/30 09:47:01;;;;;;;18.15;3.80;;;;;;;5.95;98.42;101462.69;5012139;28;20033;-81
2023/01/30 09:49:26;;;;;;;20.00;3.03;;;;;;;5.99;97.70;101467.56;5014443;28;20390;-79
2023/01/30 09:52:16;;;;;;;26.38;3.17;;;;;;;5.95;96.99;101466.16;5012329;28;20175;-80
2023/01/30 09:54:44;;;;;;;18.75;2.67;;;;;;;5.92;96.07;101456.03;5006730;28;20030;-80
2023/01/30 09:57:22;;;;;;;24.17;3.55;;;;;;;5.94;96.17;101466.22;4990467;28;20037;-80
2023/01/30 10:00:12;;;;;;;14.93;2.55;;;;;;;5.89;95.77;101469.09;5012352;28;20038;-80
2023/01/30 10:03:00;;;;;;;21.77;2.30;;;;;;;5.90;95.89;101468.19;5011783;28;20947;-80
2023/01/30 10:05:35;;;;;;;28.35;3.05;;;;;;;5.96;96.09;101478.06;5006359;28;20040;-79
2023/01/30 10:08:39;;;;;;;24.30;2.30;;;;;;;5.99;95.39;101488.16;5008073;28;20044;-79
2023/01/30 10:11:32;;;;;;;20.65;3.00;;;;;;;6.04;94.47;101490.41;4994691;28;20053;-80
2023/01/30 10:14:29;;;;;;;27.02;3.90;;;;;;;6.09;94.26;101496.06;5013093;28;20042;-79
2023/01/30 10:17:03;;;;;;;22.95;2.50;;;;;;;6.07;94.28;101500.50;5011650;28;20048;-81
2023/01/30 10:19:38;;;;;;;18.33;3.83;;;;;;;6.06;94.18;101495.44;5013593;28;20034;-79
2023/01/30 10:22:39;;;;;;;18.73;2.30;;;;;;;6.07;93.65;101497.91;5012755;28;20040;-79
2023/01/30 10:25:41;;;;;;;29.02;3.85;;;;;;;6.09;92.50;101508.94;5000811;28;20100;-78
2023/01/30 10:28:23;;;;;;;22.42;2.63;;;;;;;6.05;92.91;101504.94;5010035;28;20042;-78
2023/01/30 10:30:53;;;;;;;18.20;3.50;;;;;;;6.12;92.19;101501.00;5006764;28;20026;-80
2023/01/30 10:33:56;;;;;;;22.02;3.28;;;;;;;5.96;92.71;101498.66;4994074;28;20048;-79
2023/01/30 10:36:49;;;;;;;18.98;2.60;;;;;;;6.03;92.43;101488.78;5010608;28;20482;-79
2023/01/30 10:39:24;;;;;;;25.17;3.92;;;;;;;6.07;91.82;101487.63;5005039;28;20140;-79
2023/01/30 10:42:11;;;;;;;18.80;2.55;;;;;;;6.10;91.97;101481.41;5003903;28;20033;-80
2023/01/30 10:44:43;;;;;;;20.98;2.90;;;;;;;6.02;91.11;101487.94;5012398;28;20549;-79
2023/01/30 10:47:30;;;;;;;17.65;2.38;;;;;;;6.04;90.98;101501.50;5008423;28;20033;-78
2023/01/30 10:50:17;;;;;;;14.32;2.72;;;;;;;5.95;91.74;101509.91;5011173;28;20029;-79
2023/01/30 10:53:07;;;;;;;20.25;2.70;;;;;;;5.90;90.69;101496.50;5009264;28;20042;-77
2023/01/30 10:55:44;;;;;;;20.45;3.88;;;;;;;5.98;90.01;101512.25;5008238;28;20441;-81
2023/01/30 10:58:25;;;;;;;16.98;2.42;;;;;;;5.90;88.96;101504.22;5008775;28;20042;-79
2023/01/30 11:01:11;;;;;;;27.88;4.85;;;;;;;5.92;88.65;101522.16;5005029;28;20034;-78
2023/01/30 11:03:49;;;;;;;17.33;3.67;;;;;;;5.98;89.06;101529.47;5008373;28;20033;-79
2023/01/30 11:06:24;;;;;;;31.02;2.97;;;;;;;5.95;88.75;101525.38;4995121;28;20045;-79
2023/01/30 11:08:54;;;;;;;16.40;2.38;;;;;;;5.98;89.04;101519.97;5011821;28;20041;-81
2023/01/30 11:11:41;;;;;;;15.02;2.75;;;;;;;5.98;87.69;101512.25;5002829;28;20033;-80
2023/01/30 11:14:10;;;;;;;32.45;4.38;;;;;;;6.06;88.25;101514.28;5009209;28;20045;-79
2023/01/30 11:16:56;;;;;;;18.77;2.30;;;;;;;6.09;87.68;101498.63;4991718;28;20057;-79
2023/01/30 11:19:31;;;;;;;12.43;3.17;;;;;;;6.10;88.13;101507.97;5023200;28;20694;-82
2023/01/30 11:22:02;;;;;;;17.42;2.92;;;;;;;6.06;87.78;101506.56;5021579;28;20025;-81
2023/01/30 11:24:39;;;;;;;26.38;3.92;;;;;;;6.23;89.17;101505.34;5011185;28;20036;-80
2023/01/30 11:27:20;;;;;;;21.08;3.78;;;;;;;6.32;87.69;101509.84;4992271;28;20064;-80
2023/01/30 11:29:46;;;;;;;20.73;3.65;;;;;;;6.30;87.48;101511.72;5012935;28;20044;-78
2023/01/30 11:32:23;;;;;;;16.05;2.90;;;;;;;6.26;86.90;101520.59;5009526;28;20089;-80
2023/01/30 11:35:10;;;;;;;27.80;3.33;;;;;;;6.29;86.59;101512.66;5024265;28;20057;-79
2023/01/30 11:37:37;;;;;;;20.20;2.55;;;;;;;6.19;86.89;101521.97;5008890;28;20550;-77